createdAt,value
2022-10-17T00:00:40.260Z,13.40
2022-10-17T00:03:09.816Z,13.40
2022-10-17T00:05:41.160Z,13.50
2022-10-17T00:08:09.565Z,13.60
2022-10-17T00:10:37.505Z,13.70
2022-10-17T00:13:05.646Z,13.80
2022-10-17T00:15:33.855Z,13.80
2022-10-17T00:18:01.898Z,13.80
2022-10-17T00:20:32.795Z,13.80
2022-10-17T00:23:00.685Z,13.70
2022-10-17T00:25:28.628Z,13.70
2022-10-17T00:27:56.493Z,13.60
2022-10-17T00:30:24.369Z,13.60
2022-10-17T00:32:52.324Z,13.50
2022-10-17T00:35:20.183Z,13.40
2022-10-17T00:37:49.410Z,13.30
2022-10-17T00:40:17.344Z,13.20
2022-10-17T00:42:45.213Z,13.20
2022-10-17T00:45:22.726Z,13.20
2022-10-17T00:47:55.151Z,13.10
2022-10-17T00:50:24.232Z,13.00
2022-10-17T00:52:54.022Z,13.10
2022-10-17T00:55:25.406Z,13.00
2022-10-17T00:57:54.165Z,13.10
2022-10-17T01:00:22.530Z,13.00
2022-10-17T01:02:50.437Z,13.00
2022-10-17T01:05:19.261Z,13.10
2022-10-17T01:07:48.701Z,13.00
2022-10-17T01:10:18.523Z,13.00
2022-10-17T01:13:05.297Z,13.00
2022-10-17T01:15:45.030Z,13.00
2022-10-17T01:18:23.302Z,13.00
2022-10-17T01:21:32.501Z,13.00
2022-10-17T01:24:51.483Z,13.00
2022-10-17T01:27:38.896Z,13.00
2022-10-17T01:30:36.013Z,13.00
2022-10-17T01:33:11.850Z,13.00
2022-10-17T01:35:46.306Z,12.90
2022-10-17T01:38:19.437Z,12.80
2022-10-17T01:40:51.937Z,13.00
2022-10-17T01:43:24.814Z,12.90
2022-10-17T01:45:57.204Z,12.90
2022-10-17T01:48:31.370Z,12.90
2022-10-17T01:51:04.788Z,12.90
2022-10-17T01:53:36.799Z,12.90
2022-10-17T01:56:07.911Z,12.90
2022-10-17T01:58:43.179Z,13.00
2022-10-17T02:01:13.479Z,12.90
2022-10-17T02:03:44.757Z,13.00
2022-10-17T02:06:12.529Z,13.00
2022-10-17T02:08:44.044Z,13.10
2022-10-17T02:11:15.997Z,12.90
2022-10-17T02:14:07.723Z,12.80
2022-10-17T02:16:39.651Z,12.80
2022-10-17T02:19:36.569Z,12.70
2022-10-17T02:22:15.026Z,12.70
2022-10-17T02:24:50.226Z,12.70
2022-10-17T02:27:25.181Z,12.70
2022-10-17T02:29:58.280Z,12.60
2022-10-17T02:32:35.099Z,12.60
2022-10-17T02:35:08.011Z,12.60
2022-10-17T02:37:36.710Z,12.50
2022-10-17T02:40:06.460Z,12.50
2022-10-17T02:42:34.737Z,12.50
2022-10-17T02:45:03.820Z,12.50
2022-10-17T02:47:35.949Z,12.60
2022-10-17T02:50:07.642Z,12.50
2022-10-17T02:52:38.964Z,12.40
2022-10-17T02:55:12.427Z,12.40
2022-10-17T02:57:42.849Z,12.30
2022-10-17T03:00:14.148Z,12.30
2022-10-17T03:02:44.130Z,12.30
2022-10-17T03:05:15.221Z,12.30
2022-10-17T03:07:43.017Z,12.30
2022-10-17T03:10:10.945Z,12.30
2022-10-17T03:12:38.711Z,12.30
2022-10-17T03:15:07.648Z,12.30
2022-10-17T03:17:35.470Z,12.20
2022-10-17T03:20:03.856Z,12.20
2022-10-17T03:22:33.521Z,12.20
2022-10-17T03:25:01.282Z,12.20
2022-10-17T03:27:29.250Z,12.20
2022-10-17T03:29:57.149Z,12.10
2022-10-17T03:32:24.900Z,12.10
2022-10-17T03:34:52.655Z,12.10
2022-10-17T03:37:20.378Z,12.10
2022-10-17T03:39:49.452Z,12.20
2022-10-17T03:42:17.245Z,12.10
2022-10-17T03:44:45.007Z,12.10
2022-10-17T03:47:14.257Z,12.10
2022-10-17T03:49:42.221Z,12.10
2022-10-17T03:52:12.530Z,12.10
2022-10-17T03:54:40.289Z,12.10
2022-10-17T03:57:09.388Z,12.00
2022-10-17T03:59:37.146Z,12.00
2022-10-17T04:02:04.890Z,12.00
2022-10-17T04:04:32.645Z,11.90
2022-10-17T04:07:00.404Z,11.90
2022-10-17T04:09:28.277Z,11.90
2022-10-17T04:11:56.060Z,11.90
2022-10-17T04:14:25.146Z,11.80
2022-10-17T04:16:53.773Z,11.80
2022-10-17T04:19:21.711Z,11.80
2022-10-17T04:21:49.549Z,11.70
2022-10-17T04:24:17.418Z,11.70
2022-10-17T04:26:45.237Z,11.70
2022-10-17T04:29:13.213Z,11.60
2022-10-17T04:31:42.401Z,11.60
2022-10-17T04:34:10.169Z,11.60
2022-10-17T04:36:38.969Z,11.60
2022-10-17T04:39:06.796Z,11.50
2022-10-17T04:41:34.591Z,11.50
2022-10-17T04:44:02.345Z,11.50
2022-10-17T04:46:30.324Z,11.50
2022-10-17T04:48:59.434Z,11.50
2022-10-17T04:51:27.170Z,11.50
2022-10-17T04:53:54.892Z,11.50
2022-10-17T04:56:24.564Z,11.50
2022-10-17T04:58:52.704Z,11.50
2022-10-17T05:01:22.053Z,11.60
2022-10-17T05:03:50.116Z,11.60
2022-10-17T05:06:21.237Z,11.60
2022-10-17T05:08:49.600Z,11.60
2022-10-17T05:11:19.958Z,11.60
2022-10-17T05:13:52.233Z,11.60
2022-10-17T05:16:20.044Z,11.50
2022-10-17T05:18:52.792Z,11.40
2022-10-17T05:21:23.679Z,11.40
2022-10-17T05:23:51.818Z,11.30
2022-10-17T05:26:20.820Z,11.30
2022-10-17T05:28:48.706Z,11.20
2022-10-17T05:31:16.774Z,11.20
2022-10-17T05:33:44.562Z,11.20
2022-10-17T05:36:12.376Z,11.20
2022-10-17T05:38:41.514Z,11.10
2022-10-17T05:41:10.548Z,11.10
2022-10-17T05:43:38.303Z,11.10
2022-10-17T05:46:07.008Z,11.00
2022-10-17T05:48:35.516Z,10.90
2022-10-17T05:51:05.017Z,10.90
2022-10-17T05:53:33.881Z,10.90
2022-10-17T05:56:05.321Z,10.90
2022-10-17T05:58:52.311Z,11.00
2022-10-17T06:01:22.081Z,11.00
2022-10-17T06:03:49.855Z,11.00
2022-10-17T06:06:18.789Z,11.10
2022-10-17T06:08:46.758Z,11.20
2022-10-17T06:11:15.941Z,11.30
2022-10-17T06:13:43.786Z,11.40
2022-10-17T06:16:11.545Z,11.50
2022-10-17T06:18:39.320Z,11.60
2022-10-17T06:21:09.629Z,11.80
2022-10-17T06:23:37.625Z,11.90
2022-10-17T06:26:07.500Z,12.00
2022-10-17T06:28:37.561Z,12.10
2022-10-17T06:31:07.244Z,12.20
2022-10-17T06:33:35.143Z,12.30
2022-10-17T06:36:03.065Z,12.50
2022-10-17T06:38:31.188Z,12.60
2022-10-17T06:41:04.956Z,12.70
2022-10-17T06:43:32.684Z,12.90
2022-10-17T06:46:01.818Z,13.00
2022-10-17T06:48:29.616Z,13.00
2022-10-17T06:51:00.489Z,13.20
2022-10-17T06:53:29.718Z,13.30
2022-10-17T06:56:01.268Z,13.40
2022-10-17T06:58:29.129Z,13.60
2022-10-17T07:01:01.582Z,13.80
2022-10-17T07:03:29.951Z,13.90
2022-10-17T07:05:58.129Z,14.10
2022-10-17T07:08:26.651Z,14.30
2022-10-17T07:10:54.600Z,14.50
2022-10-17T07:13:22.693Z,14.70
2022-10-17T07:15:50.506Z,15.00
2022-10-17T07:18:19.669Z,15.20
2022-10-17T07:20:54.640Z,15.50
2022-10-17T07:23:22.505Z,15.80
2022-10-17T07:25:50.268Z,16.10
2022-10-17T07:28:18.212Z,16.50
2022-10-17T07:30:49.461Z,16.80
2022-10-17T07:33:21.244Z,17.20
2022-10-17T07:35:48.978Z,17.50
2022-10-17T07:38:16.756Z,17.90
2022-10-17T07:40:44.770Z,18.20
2022-10-17T07:43:12.534Z,18.50
2022-10-17T07:45:42.097Z,18.70
2022-10-17T07:48:09.833Z,18.80
2022-10-17T07:50:38.976Z,18.90
2022-10-17T07:53:06.765Z,18.90
2022-10-17T07:55:34.533Z,18.90
2022-10-17T07:58:02.292Z,18.90
2022-10-17T08:00:30.247Z,18.90
2022-10-17T08:02:58.025Z,19.30
2022-10-17T08:05:25.860Z,19.90
2022-10-17T08:07:55.884Z,20.70
2022-10-17T08:10:27.543Z,21.40
2022-10-17T08:12:55.865Z,21.70
2022-10-17T08:15:26.795Z,21.90
2022-10-17T08:18:00.047Z,21.90
2022-10-17T08:20:28.318Z,22.00
2022-10-17T08:22:57.658Z,22.00
2022-10-17T08:25:25.466Z,22.50
2022-10-17T08:27:53.227Z,23.80
2022-10-17T08:30:21.009Z,25.60
2022-10-17T08:32:48.761Z,27.60
2022-10-17T08:35:17.303Z,29.40
2022-10-17T08:37:45.095Z,31.20
2022-10-17T08:40:20.106Z,32.90
2022-10-17T08:43:03.930Z,34.50
2022-10-17T08:45:36.604Z,35.80
2022-10-17T08:48:10.726Z,37.00
2022-10-17T08:50:44.371Z,38.10
2022-10-17T08:53:19.831Z,39.10
2022-10-17T08:55:50.709Z,39.70
2022-10-17T08:58:21.885Z,40.30
2022-10-17T09:00:58.252Z,40.60
2022-10-17T09:03:39.505Z,40.60
2022-10-17T09:06:21.485Z,39.90
2022-10-17T09:08:58.996Z,39.10
2022-10-17T09:11:43.016Z,38.40
2022-10-17T09:14:26.228Z,38.20
2022-10-17T09:17:22.997Z,38.20
2022-10-17T09:20:01.882Z,38.30
2022-10-17T09:22:37.884Z,37.80
2022-10-17T09:25:11.769Z,37.50
2022-10-17T09:27:44.157Z,37.60
2022-10-17T09:30:45.162Z,38.30
2022-10-17T09:33:28.265Z,38.80
2022-10-17T09:36:05.384Z,39.50
2022-10-17T09:38:40.556Z,40.10
2022-10-17T09:41:42.849Z,40.60
2022-10-17T09:44:16.800Z,40.90
2022-10-17T09:46:53.224Z,41.30
2022-10-17T09:49:27.882Z,41.20
2022-10-17T09:51:55.914Z,41.20
2022-10-17T09:54:27.810Z,41.40
2022-10-17T09:57:00.621Z,41.70
2022-10-17T09:59:35.113Z,41.40
2022-10-17T10:02:15.547Z,41.20
2022-10-17T10:05:05.068Z,40.10
2022-10-17T10:07:35.853Z,39.00
2022-10-17T10:10:06.993Z,38.80
2022-10-17T10:12:36.487Z,38.60
2022-10-17T10:15:32.132Z,38.30
2022-10-17T10:17:59.972Z,37.80
2022-10-17T10:20:34.502Z,37.40
2022-10-17T10:23:22.061Z,37.80
2022-10-17T10:25:53.955Z,38.00
2022-10-17T10:28:25.243Z,37.90
2022-10-17T10:30:56.376Z,38.00
2022-10-17T10:33:28.490Z,37.70
2022-10-17T10:35:59.296Z,37.50
2022-10-17T10:38:27.298Z,37.00
2022-10-17T10:40:57.127Z,36.20
2022-10-17T10:43:34.008Z,36.00
2022-10-17T10:46:06.320Z,35.80
2022-10-17T10:48:36.292Z,35.70
2022-10-17T10:51:08.216Z,35.60
2022-10-17T10:53:43.886Z,35.20
2022-10-17T10:56:17.641Z,35.50
2022-10-17T10:58:56.318Z,36.20
2022-10-17T11:01:31.003Z,37.30
2022-10-17T11:04:07.734Z,37.50
2022-10-17T11:06:38.429Z,37.40
2022-10-17T11:09:23.948Z,37.00
2022-10-17T11:11:59.564Z,37.30
2022-10-17T11:14:39.145Z,37.50
2022-10-17T11:17:18.526Z,36.90
2022-10-17T11:19:52.630Z,35.80
2022-10-17T11:22:28.195Z,34.50
2022-10-17T11:25:00.953Z,33.70
2022-10-17T11:27:30.342Z,33.50
2022-10-17T11:29:59.358Z,33.10
2022-10-17T11:32:32.618Z,32.80
2022-10-17T11:35:05.180Z,32.70
2022-10-17T11:37:40.239Z,32.80
2022-10-17T11:40:20.440Z,32.90
2022-10-17T11:42:56.924Z,33.30
2022-10-17T11:45:28.105Z,34.30
2022-10-17T11:48:02.679Z,34.60
2022-10-17T11:53:24.764Z,34.50
2022-10-17T11:55:54.862Z,34.40
2022-10-17T11:58:33.028Z,34.10
2022-10-17T12:01:10.113Z,33.70
2022-10-17T12:03:53.482Z,33.40
2022-10-17T12:06:33.157Z,32.90
2022-10-17T12:09:11.129Z,32.20
2022-10-17T12:11:50.702Z,31.50
2022-10-17T12:14:39.820Z,31.60
2022-10-17T12:17:24.410Z,32.60
2022-10-17T12:19:53.585Z,33.60
2022-10-17T12:22:25.923Z,34.40
2022-10-17T12:25:00.345Z,35.00
2022-10-17T12:27:43.433Z,35.40
2022-10-17T12:30:23.681Z,35.70
2022-10-17T12:33:06.109Z,36.40
2022-10-17T12:35:38.145Z,36.90
2022-10-17T12:38:29.676Z,36.70
2022-10-17T12:40:59.369Z,35.70
2022-10-17T12:43:55.705Z,35.30
2022-10-17T12:46:57.077Z,35.30
2022-10-17T12:49:51.189Z,35.70
2022-10-17T12:52:27.415Z,36.70
2022-10-17T12:55:10.555Z,37.40
2022-10-17T12:57:45.217Z,37.50
2022-10-17T13:00:19.974Z,37.70
2022-10-17T13:02:49.023Z,37.80
2022-10-17T13:05:20.409Z,37.60
2022-10-17T13:07:50.617Z,37.40
2022-10-17T13:10:24.458Z,37.30
2022-10-17T13:12:55.569Z,37.20
2022-10-17T13:15:23.357Z,37.30
2022-10-17T13:17:58.575Z,36.60
2022-10-17T13:20:31.465Z,36.10
2022-10-17T13:23:01.132Z,35.50
2022-10-17T13:25:29.356Z,35.50
2022-10-17T13:28:12.090Z,35.90
2022-10-17T13:30:40.216Z,36.20
2022-10-17T13:33:29.371Z,36.20
2022-10-17T13:36:01.258Z,36.30
2022-10-17T13:38:34.888Z,36.50
2022-10-17T13:41:34.419Z,36.30
2022-10-17T13:43:53.008Z,35.70
2022-10-17T13:46:37.903Z,35.30
2022-10-17T13:49:12.549Z,34.90
2022-10-17T13:51:44.701Z,34.00
2022-10-17T13:54:31.551Z,32.90
2022-10-17T13:57:00.221Z,31.80
2022-10-17T13:59:34.945Z,30.80
2022-10-17T14:02:03.103Z,29.80
2022-10-17T14:04:44.667Z,29.10
2022-10-17T14:07:27.764Z,28.50
2022-10-17T14:09:58.393Z,27.90
2022-10-17T14:12:26.275Z,27.40
2022-10-17T14:15:11.335Z,27.00
2022-10-17T14:17:40.325Z,26.60
2022-10-17T14:20:57.160Z,26.10
2022-10-17T14:23:21.520Z,25.80
2022-10-17T14:25:47.721Z,25.60
2022-10-17T14:28:18.278Z,25.30
2022-10-17T14:31:03.214Z,25.10
2022-10-17T14:33:34.599Z,25.00
2022-10-17T14:36:06.178Z,24.90
2022-10-17T14:38:35.838Z,24.80
2022-10-17T14:41:40.954Z,24.70
2022-10-17T14:44:00.540Z,24.60
2022-10-17T14:46:28.873Z,24.50
2022-10-17T14:49:03.033Z,24.30
2022-10-17T14:51:40.021Z,24.20
2022-10-17T14:54:23.008Z,24.20
2022-10-17T14:56:54.794Z,24.00
2022-10-17T14:59:52.120Z,24.00
2022-10-17T15:02:12.984Z,23.90
2022-10-17T15:04:40.746Z,23.90
2022-10-17T15:07:11.401Z,23.70
2022-10-17T15:09:39.142Z,23.70
2022-10-17T15:12:15.340Z,23.60
2022-10-17T15:14:43.244Z,23.60
2022-10-17T15:17:15.230Z,23.50
2022-10-17T15:19:43.232Z,23.40
2022-10-17T15:22:11.023Z,23.40
2022-10-17T15:24:38.786Z,23.30
2022-10-17T15:27:18.026Z,23.20
2022-10-17T15:29:46.698Z,23.20
2022-10-17T15:32:14.981Z,23.00
2022-10-17T15:34:42.919Z,22.80
2022-10-17T15:37:18.387Z,22.70
2022-10-17T15:39:52.805Z,22.60
2022-10-17T15:42:22.801Z,22.50
2022-10-17T15:44:50.735Z,22.40
2022-10-17T15:47:26.182Z,22.40
2022-10-17T15:49:55.037Z,22.30
2022-10-17T15:52:23.058Z,22.30
2022-10-17T15:54:50.998Z,22.20
2022-10-17T15:57:23.947Z,22.10
2022-10-17T15:59:53.387Z,22.00
2022-10-17T16:02:22.863Z,21.90
2022-10-17T16:04:51.542Z,21.70
2022-10-17T16:07:20.007Z,21.50
2022-10-17T16:09:48.342Z,21.40
2022-10-17T16:12:18.379Z,21.30
2022-10-17T16:14:47.544Z,21.10
2022-10-17T16:17:16.571Z,20.90
2022-10-17T16:19:44.716Z,20.80
2022-10-17T16:22:23.821Z,20.70
2022-10-17T16:24:58.102Z,20.60
2022-10-17T16:27:26.036Z,20.40
2022-10-17T16:29:55.140Z,20.30
2022-10-17T16:32:22.891Z,20.20
2022-10-17T16:34:50.627Z,20.10
2022-10-17T16:37:18.417Z,20.00
2022-10-17T16:39:49.063Z,19.80
2022-10-17T16:42:16.945Z,19.70
2022-10-17T16:44:44.767Z,19.60
2022-10-17T16:47:13.865Z,19.50
2022-10-17T16:49:44.453Z,19.40
2022-10-17T16:52:13.296Z,19.30
2022-10-17T16:54:41.103Z,19.20
2022-10-17T16:57:08.943Z,19.10
2022-10-17T16:59:36.749Z,19.00
2022-10-17T17:02:04.604Z,18.90
2022-10-17T17:04:33.820Z,18.90
2022-10-17T17:07:01.595Z,18.80
2022-10-17T17:09:29.474Z,18.70
2022-10-17T17:11:57.261Z,18.60
2022-10-17T17:14:25.004Z,18.50
2022-10-17T17:16:52.785Z,18.50
2022-10-17T17:19:20.610Z,18.40
2022-10-17T17:21:51.019Z,18.30
2022-10-17T17:24:20.878Z,18.30
2022-10-17T17:26:52.233Z,18.30
2022-10-17T17:29:20.427Z,18.30
2022-10-17T17:31:48.241Z,18.20
2022-10-17T17:34:18.109Z,18.10
2022-10-17T17:36:46.690Z,18.10
2022-10-17T17:39:16.460Z,17.90
2022-10-17T17:41:45.489Z,17.80
2022-10-17T17:44:16.683Z,17.80
2022-10-17T17:46:45.265Z,17.70
2022-10-17T17:49:13.208Z,17.60
2022-10-17T17:51:41.470Z,17.60
2022-10-17T17:54:11.364Z,17.60
2022-10-17T17:56:40.750Z,17.50
2022-10-17T17:59:08.609Z,17.50
2022-10-17T18:01:38.655Z,17.50
2022-10-17T18:04:08.469Z,17.50
2022-10-17T18:06:37.296Z,17.50
2022-10-17T18:09:06.390Z,17.50
2022-10-17T18:11:34.385Z,17.50
2022-10-17T18:14:05.197Z,17.50
2022-10-17T18:16:34.509Z,17.40
2022-10-17T18:19:06.737Z,17.40
2022-10-17T18:21:35.175Z,17.20
2022-10-17T18:24:04.398Z,17.30
2022-10-17T18:26:32.277Z,17.20
2022-10-17T18:29:00.197Z,17.20
2022-10-17T18:31:31.990Z,17.20
2022-10-17T18:34:00.923Z,17.20
2022-10-17T18:36:30.006Z,17.20
2022-10-17T18:38:59.881Z,17.10
2022-10-17T18:41:28.390Z,17.10
2022-10-17T18:43:57.479Z,17.10
2022-10-17T18:46:26.788Z,17.00
2022-10-17T18:48:56.296Z,16.90
2022-10-17T18:51:25.925Z,16.90
2022-10-17T18:53:55.276Z,16.80
2022-10-17T18:56:23.831Z,16.70
2022-10-17T18:58:52.200Z,16.60
2022-10-17T19:01:21.747Z,16.60
2022-10-17T19:03:51.649Z,16.50
2022-10-17T19:06:22.795Z,16.50
2022-10-17T19:08:51.142Z,16.50
2022-10-17T19:11:21.949Z,16.50
2022-10-17T19:13:50.610Z,16.40
2022-10-17T19:16:20.469Z,16.40
2022-10-17T19:18:50.913Z,16.40
2022-10-17T19:21:22.042Z,16.40
2022-10-17T19:23:51.376Z,16.30
2022-10-17T19:26:19.706Z,16.30
2022-10-17T19:28:47.799Z,16.30
2022-10-17T19:31:17.937Z,16.30
2022-10-17T19:33:46.212Z,16.20
2022-10-17T19:36:14.929Z,16.00
2022-10-17T19:38:44.236Z,15.80
2022-10-17T19:41:13.728Z,15.70
2022-10-17T19:43:43.099Z,15.50
2022-10-17T19:46:14.001Z,15.40
2022-10-17T19:48:41.845Z,15.40
2022-10-17T19:51:12.641Z,15.30
2022-10-17T19:53:41.333Z,15.20
2022-10-17T19:56:11.527Z,15.10
2022-10-17T19:58:44.919Z,15.00
2022-10-17T20:01:14.447Z,15.00
2022-10-17T20:03:42.247Z,15.00
2022-10-17T20:06:10.377Z,14.90
2022-10-17T20:08:38.953Z,14.90
2022-10-17T20:11:08.849Z,14.80
2022-10-17T20:13:38.521Z,14.80
2022-10-17T20:16:07.945Z,14.80
2022-10-17T20:18:35.941Z,14.80
2022-10-17T20:21:05.340Z,14.70
2022-10-17T20:23:33.239Z,14.70
2022-10-17T20:26:08.697Z,14.70
2022-10-17T20:28:48.639Z,14.80
2022-10-17T20:31:17.115Z,14.80
2022-10-17T20:33:44.882Z,14.70
2022-10-17T20:36:14.625Z,14.70
2022-10-17T20:38:42.366Z,14.70
2022-10-17T20:41:11.000Z,14.70
2022-10-17T20:43:39.003Z,14.70
2022-10-17T20:46:23.531Z,14.60
2022-10-17T20:49:02.742Z,14.50
2022-10-17T20:51:30.636Z,14.40
2022-10-17T20:53:58.445Z,14.30
2022-10-17T20:56:27.777Z,14.30
2022-10-17T20:58:57.077Z,14.20
2022-10-17T21:01:27.135Z,14.20
2022-10-17T21:03:57.065Z,14.20
2022-10-17T21:06:27.556Z,14.30
2022-10-17T21:08:56.398Z,14.30
2022-10-17T21:11:25.820Z,14.30
2022-10-17T21:13:57.343Z,14.20
2022-10-17T21:16:26.967Z,14.20
2022-10-17T21:18:55.812Z,14.20
2022-10-17T21:21:26.632Z,14.20
2022-10-17T21:23:56.028Z,14.20
2022-10-17T21:26:23.964Z,14.10
2022-10-17T21:28:51.947Z,14.10
2022-10-17T21:31:21.369Z,14.00
2022-10-17T21:33:52.829Z,14.00
2022-10-17T21:36:21.964Z,13.90
2022-10-17T21:38:51.456Z,13.90
2022-10-17T21:41:20.584Z,13.90
2022-10-17T21:43:49.052Z,13.90
2022-10-17T21:46:18.675Z,13.90
2022-10-17T21:48:47.653Z,13.90
2022-10-17T21:51:18.721Z,13.80
2022-10-17T21:53:46.828Z,13.80
2022-10-17T21:56:16.737Z,13.70
2022-10-17T21:58:45.216Z,13.70
2022-10-17T22:01:14.962Z,13.60
2022-10-17T22:03:46.680Z,13.60
2022-10-17T22:06:38.783Z,13.60
2022-10-17T22:09:08.348Z,13.50
2022-10-17T22:11:36.845Z,13.40
2022-10-17T22:14:07.453Z,13.40
2022-10-17T22:16:35.844Z,13.40
2022-10-17T22:19:06.782Z,13.50
2022-10-17T22:21:37.385Z,13.50
2022-10-17T22:24:08.146Z,13.50
2022-10-17T22:26:37.256Z,13.50
2022-10-17T22:29:05.786Z,13.50
2022-10-17T22:31:33.976Z,13.50
2022-10-17T22:34:01.740Z,13.50
2022-10-17T22:36:29.512Z,13.50
2022-10-17T22:38:58.588Z,13.40
2022-10-17T22:41:26.435Z,13.40
2022-10-17T22:43:54.185Z,13.40
2022-10-17T22:46:21.962Z,13.40
2022-10-17T22:48:49.717Z,13.30
2022-10-17T22:51:17.696Z,13.30
2022-10-17T22:53:45.762Z,13.20
2022-10-17T22:56:17.077Z,13.20
2022-10-17T22:58:45.356Z,13.10
2022-10-17T23:01:16.417Z,13.00
2022-10-17T23:03:44.272Z,13.00
2022-10-17T23:06:12.329Z,13.00
2022-10-17T23:08:40.665Z,13.00
2022-10-17T23:11:08.790Z,13.10
2022-10-17T23:13:39.643Z,13.20
2022-10-17T23:16:08.325Z,13.20
2022-10-17T23:18:36.368Z,13.20
2022-10-17T23:21:04.163Z,13.20
2022-10-17T23:23:31.932Z,13.20
2022-10-17T23:26:05.445Z,13.20
2022-10-17T23:28:35.222Z,13.20
2022-10-17T23:31:15.241Z,13.30
2022-10-17T23:33:44.733Z,13.30
2022-10-17T23:36:13.438Z,13.30
2022-10-17T23:38:41.619Z,13.30
2022-10-17T23:41:09.762Z,13.20
2022-10-17T23:43:38.014Z,13.20
2022-10-17T23:46:07.295Z,13.10
2022-10-17T23:48:40.386Z,13.10
2022-10-17T23:51:08.627Z,13.00
2022-10-17T23:53:36.647Z,12.90
2022-10-17T23:56:04.787Z,12.90
2022-10-17T23:58:32.657Z,12.70
